sensor_id;sensor_type;location;lat;lon;timestamp;temperature;humidity
9828;DHT22;4953;48.952;9.442;2023-01-08T05:01:10;4.50;99.90
9828;DHT22;4953;48.952;9.442;2023-01-08T05:03:37;4.50;99.90
9828;DHT22;4953;48.952;9.442;2023-01-08T05:06:05;4.50;99.90
9828;DHT22;4953;48.952;9.442;2023-01-08T05:08:32;4.50;99.90
9828;DHT22;4953;48.952;9.442;2023-01-08T05:10:59;4.40;99.90
9828;DHT22;4953;48.952;9.442;2023-01-08T05:13:25;4.50;99.90
9828;DHT22;4953;48.952;9.442;2023-01-08T05:15:53;4.50;99.90
9828;DHT22;4953;48.952;9.442;2023-01-08T05:18:22;4.60;99.90
9828;DHT22;4953;48.952;9.442;2023-01-08T05:20:49;4.60;99.90
9828;DHT22;4953;48.952;9.442;2023-01-08T05:23:15;4.70;99.90
9828;DHT22;4953;48.952;9.442;2023-01-08T05:25:42;4.70;99.90
9828;DHT22;4953;48.952;9.442;2023-01-08T05:28:09;4.80;99.90
9828;DHT22;4953;48.952;9.442;2023-01-08T05:30:36;4.70;99.90
9828;DHT22;4953;48.952;9.442;2023-01-08T05:33:03;4.70;99.90
9828;DHT22;4953;48.952;9.442;2023-01-08T05:35:31;4.80;99.90
9828;DHT22;4953;48.952;9.442;2023-01-08T05:37:58;4.80;99.90
9828;DHT22;4953;48.952;9.442;2023-01-08T05:40:25;4.80;99.90
9828;DHT22;4953;48.952;9.442;2023-01-08T05:42:52;4.90;99.90
9828;DHT22;4953;48.952;9.442;2023-01-08T05:45:19;4.90;99.90
9828;DHT22;4953;48.952;9.442;2023-01-08T05:47:46;5.00;99.90
9828;DHT22;4953;48.952;9.442;2023-01-08T05:50:13;5.10;99.90
9828;DHT22;4953;48.952;9.442;2023-01-08T05:52:41;5.10;99.90
9828;DHT22;4953;48.952;9.442;2023-01-08T05:55:08;5.20;99.90
9828;DHT22;4953;48.952;9.442;2023-01-08T05:57:35;5.30;99.90
9828;DHT22;4953;48.952;9.442;2023-01-08T06:00:02;5.30;99.90
9828;DHT22;4953;48.952;9.442;2023-01-08T06:02:29;5.30;99.90
9828;DHT22;4953;48.952;9.442;2023-01-08T06:04:56;5.40;99.90
9828;DHT22;4953;48.952;9.442;2023-01-08T06:07:23;5.50;99.90
9828;DHT22;4953;48.952;9.442;2023-01-08T06:09:51;5.60;99.90
9828;DHT22;4953;48.952;9.442;2023-01-08T06:12:18;5.60;99.90
9828;DHT22;4953;48.952;9.442;2023-01-08T06:14:44;5.70;99.90
9828;DHT22;4953;48.952;9.442;2023-01-08T06:17:11;5.80;99.90
9828;DHT22;4953;48.952;9.442;2023-01-08T06:19:39;5.90;99.90
9828;DHT22;4953;48.952;9.442;2023-01-08T06:22:06;5.90;99.90
9828;DHT22;4953;48.952;9.442;2023-01-08T06:24:32;6.00;99.90
9828;DHT22;4953;48.952;9.442;2023-01-08T06:27:01;6.00;99.90
9828;DHT22;4953;48.952;9.442;2023-01-08T06:29:27;6.00;99.90
9828;DHT22;4953;48.952;9.442;2023-01-08T06:31:54;6.10;99.90
9828;DHT22;4953;48.952;9.442;2023-01-08T06:34:21;6.10;99.90
9828;DHT22;4953;48.952;9.442;2023-01-08T06:36:48;6.10;99.90
9828;DHT22;4953;48.952;9.442;2023-01-08T06:39:15;6.20;99.90
9828;DHT22;4953;48.952;9.442;2023-01-08T06:41:42;6.20;99.90
9828;DHT22;4953;48.952;9.442;2023-01-08T06:44:10;6.30;99.90
9828;DHT22;4953;48.952;9.442;2023-01-08T06:46:37;6.30;99.90
9828;DHT22;4953;48.952;9.442;2023-01-08T06:49:04;6.40;99.90
9828;DHT22;4953;48.952;9.442;2023-01-08T06:51:31;6.40;99.90
9828;DHT22;4953;48.952;9.442;2023-01-08T06:53:58;6.50;99.90
9828;DHT22;4953;48.952;9.442;2023-01-08T06:56:25;6.50;99.90
9828;DHT22;4953;48.952;9.442;2023-01-08T06:58:52;6.60;99.90
9828;DHT22;4953;48.952;9.442;2023-01-08T07:01:20;6.60;99.90
9828;DHT22;4953;48.952;9.442;2023-01-08T07:03:48;6.70;99.90
9828;DHT22;4953;48.952;9.442;2023-01-08T07:06:16;6.80;99.90
9828;DHT22;4953;48.952;9.442;2023-01-08T07:08:43;6.80;99.90
9828;DHT22;4953;48.952;9.442;2023-01-08T07:11:11;6.90;99.90
9828;DHT22;4953;48.952;9.442;2023-01-08T07:13:37;6.90;99.90
9828;DHT22;4953;48.952;9.442;2023-01-08T07:16:05;7.00;99.90
9828;DHT22;4953;48.952;9.442;2023-01-08T07:18:34;7.00;99.90
9828;DHT22;4953;48.952;9.442;2023-01-08T07:21:01;7.10;99.90
9828;DHT22;4953;48.952;9.442;2023-01-08T07:23:28;7.10;99.90
9828;DHT22;4953;48.952;9.442;2023-01-08T07:25:58;7.20;99.90
9828;DHT22;4953;48.952;9.442;2023-01-08T07:28:25;7.20;99.90
9828;DHT22;4953;48.952;9.442;2023-01-08T07:30:51;7.30;99.90
9828;DHT22;4953;48.952;9.442;2023-01-08T07:33:18;7.30;99.90
9828;DHT22;4953;48.952;9.442;2023-01-08T07:35:51;7.30;99.90
9828;DHT22;4953;48.952;9.442;2023-01-08T07:38:18;7.40;99.90
9828;DHT22;4953;48.952;9.442;2023-01-08T07:40:45;7.40;99.90
9828;DHT22;4953;48.952;9.442;2023-01-08T07:43:12;7.40;99.90
9828;DHT22;4953;48.952;9.442;2023-01-08T07:45:39;7.50;99.90
9828;DHT22;4953;48.952;9.442;2023-01-08T07:48:06;7.50;99.90
9828;DHT22;4953;48.952;9.442;2023-01-08T07:50:36;7.60;99.90
9828;DHT22;4953;48.952;9.442;2023-01-08T07:53:06;7.60;99.90
9828;DHT22;4953;48.952;9.442;2023-01-08T07:55:33;7.70;99.90
9828;DHT22;4953;48.952;9.442;2023-01-08T07:57:59;7.90;99.90
9828;DHT22;4953;48.952;9.442;2023-01-08T08:00:26;8.00;99.90
9828;DHT22;4953;48.952;9.442;2023-01-08T08:02:53;7.90;99.90
9828;DHT22;4953;48.952;9.442;2023-01-08T08:05:20;7.90;99.90
9828;DHT22;4953;48.952;9.442;2023-01-08T08:07:46;7.90;99.90
9828;DHT22;4953;48.952;9.442;2023-01-08T08:10:15;8.00;99.90
9828;DHT22;4953;48.952;9.442;2023-01-08T08:12:43;8.00;99.90
9828;DHT22;4953;48.952;9.442;2023-01-08T08:15:10;8.00;99.90
9828;DHT22;4953;48.952;9.442;2023-01-08T08:17:37;8.00;99.90
9828;DHT22;4953;48.952;9.442;2023-01-08T08:20:05;8.00;99.90
9828;DHT22;4953;48.952;9.442;2023-01-08T08:22:31;8.00;99.90
9828;DHT22;4953;48.952;9.442;2023-01-08T08:24:58;8.10;99.90
9828;DHT22;4953;48.952;9.442;2023-01-08T08:27:26;8.10;99.90
9828;DHT22;4953;48.952;9.442;2023-01-08T08:29:53;8.10;99.90
9828;DHT22;4953;48.952;9.442;2023-01-08T08:32:20;8.20;99.90
9828;DHT22;4953;48.952;9.442;2023-01-08T08:34:47;8.10;99.90
9828;DHT22;4953;48.952;9.442;2023-01-08T08:37:15;8.20;99.90
9828;DHT22;4953;48.952;9.442;2023-01-08T08:39:41;8.20;99.90
9828;DHT22;4953;48.952;9.442;2023-01-08T08:42:08;8.20;99.90
9828;DHT22;4953;48.952;9.442;2023-01-08T08:44:36;8.20;99.90
9828;DHT22;4953;48.952;9.442;2023-01-08T08:47:05;8.20;99.90
9828;DHT22;4953;48.952;9.442;2023-01-08T08:49:32;8.20;99.90
9828;DHT22;4953;48.952;9.442;2023-01-08T08:52:00;8.20;99.90
9828;DHT22;4953;48.952;9.442;2023-01-08T08:54:27;8.20;99.90
9828;DHT22;4953;48.952;9.442;2023-01-08T08:56:54;8.20;99.90
9828;DHT22;4953;48.952;9.442;2023-01-08T08:59:21;8.20;99.90
9828;DHT22;4953;48.952;9.442;2023-01-08T09:01:49;8.20;99.90
9828;DHT22;4953;48.952;9.442;2023-01-08T09:04:16;8.30;99.90
9828;DHT22;4953;48.952;9.442;2023-01-08T09:06:42;8.30;99.90
9828;DHT22;4953;48.952;9.442;2023-01-08T09:09:09;8.30;99.90
9828;DHT22;4953;48.952;9.442;2023-01-08T09:11:36;8.30;99.90
9828;DHT22;4953;48.952;9.442;2023-01-08T09:14:03;8.40;99.90
9828;DHT22;4953;48.952;9.442;2023-01-08T09:16:30;8.40;99.90
9828;DHT22;4953;48.952;9.442;2023-01-08T09:18:58;8.30;99.90
9828;DHT22;4953;48.952;9.442;2023-01-08T09:21:25;8.30;99.90
9828;DHT22;4953;48.952;9.442;2023-01-08T09:23:52;8.30;99.90
9828;DHT22;4953;48.952;9.442;2023-01-08T09:26:19;8.30;99.90
9828;DHT22;4953;48.952;9.442;2023-01-08T09:28:46;8.30;99.90
9828;DHT22;4953;48.952;9.442;2023-01-08T09:31:13;8.30;99.90
9828;DHT22;4953;48.952;9.442;2023-01-08T09:33:39;8.30;99.90
9828;DHT22;4953;48.952;9.442;2023-01-08T09:36:10;8.30;99.90
9828;DHT22;4953;48.952;9.442;2023-01-08T09:38:37;8.30;99.90
9828;DHT22;4953;48.952;9.442;2023-01-08T09:41:07;8.30;99.90
9828;DHT22;4953;48.952;9.442;2023-01-08T09:43:38;8.30;99.90
9828;DHT22;4953;48.952;9.442;2023-01-08T09:46:06;8.30;99.90
9828;DHT22;4953;48.952;9.442;2023-01-08T09:48:35;8.30;99.90
9828;DHT22;4953;48.952;9.442;2023-01-08T09:51:03;8.30;99.90
9828;DHT22;4953;48.952;9.442;2023-01-08T09:53:33;8.30;99.90
9828;DHT22;4953;48.952;9.442;2023-01-08T09:56:02;8.30;99.90
9828;DHT22;4953;48.952;9.442;2023-01-08T09:58:35;8.40;99.90
9828;DHT22;4953;48.952;9.442;2023-01-08T10:01:04;8.40;99.90
9828;DHT22;4953;48.952;9.442;2023-01-08T10:03:39;8.40;99.90
9828;DHT22;4953;48.952;9.442;2023-01-08T10:06:08;8.40;99.90
9828;DHT22;4953;48.952;9.442;2023-01-08T10:08:36;8.40;99.90
9828;DHT22;4953;48.952;9.442;2023-01-08T10:11:04;8.40;99.90
9828;DHT22;4953;48.952;9.442;2023-01-08T10:13:32;8.40;99.90
9828;DHT22;4953;48.952;9.442;2023-01-08T10:16:00;8.50;99.90
9828;DHT22;4953;48.952;9.442;2023-01-08T10:18:28;8.50;99.90
9828;DHT22;4953;48.952;9.442;2023-01-08T10:20:56;8.50;99.90
9828;DHT22;4953;48.952;9.442;2023-01-08T10:23:23;8.50;99.90
9828;DHT22;4953;48.952;9.442;2023-01-08T10:25:54;8.60;99.90
9828;DHT22;4953;48.952;9.442;2023-01-08T10:28:23;8.60;99.90
9828;DHT22;4953;48.952;9.442;2023-01-08T10:30:50;8.60;99.90
9828;DHT22;4953;48.952;9.442;2023-01-08T10:33:23;8.60;99.90
9828;DHT22;4953;48.952;9.442;2023-01-08T10:35:53;8.60;99.90
9828;DHT22;4953;48.952;9.442;2023-01-08T10:38:26;8.60;99.90
9828;DHT22;4953;48.952;9.442;2023-01-08T10:40:56;8.70;99.90
9828;DHT22;4953;48.952;9.442;2023-01-08T10:43:26;8.70;99.90
9828;DHT22;4953;48.952;9.442;2023-01-08T10:45:57;8.70;99.90
9828;DHT22;4953;48.952;9.442;2023-01-08T10:48:29;8.70;99.90
9828;DHT22;4953;48.952;9.442;2023-01-08T10:51:05;8.70;99.90
9828;DHT22;4953;48.952;9.442;2023-01-08T10:53:32;8.80;99.90
9828;DHT22;4953;48.952;9.442;2023-01-08T10:56:03;8.80;99.90
9828;DHT22;4953;48.952;9.442;2023-01-08T10:58:40;8.80;99.90
9828;DHT22;4953;48.952;9.442;2023-01-08T11:01:11;8.80;99.90
9828;DHT22;4953;48.952;9.442;2023-01-08T11:03:41;8.80;99.90
9828;DHT22;4953;48.952;9.442;2023-01-08T11:06:12;8.80;99.90
9828;DHT22;4953;48.952;9.442;2023-01-08T11:08:50;8.80;99.90
9828;DHT22;4953;48.952;9.442;2023-01-08T11:11:19;8.80;99.90
9828;DHT22;4953;48.952;9.442;2023-01-08T11:13:56;8.80;99.90
9828;DHT22;4953;48.952;9.442;2023-01-08T11:16:31;8.90;99.90
9828;DHT22;4953;48.952;9.442;2023-01-08T11:18:59;8.90;99.90
9828;DHT22;4953;48.952;9.442;2023-01-08T11:21:28;8.90;99.90
9828;DHT22;4953;48.952;9.442;2023-01-08T11:24:15;9.00;99.90
9828;DHT22;4953;48.952;9.442;2023-01-08T11:26:47;8.90;99.90
9828;DHT22;4953;48.952;9.442;2023-01-08T11:29:17;9.00;99.90
9828;DHT22;4953;48.952;9.442;2023-01-08T11:31:53;9.00;99.90
9828;DHT22;4953;48.952;9.442;2023-01-08T11:34:25;9.00;99.90
9828;DHT22;4953;48.952;9.442;2023-01-08T11:36:58;9.00;99.90
9828;DHT22;4953;48.952;9.442;2023-01-08T11:39:27;9.10;99.90
9828;DHT22;4953;48.952;9.442;2023-01-08T11:42:08;9.00;99.90
9828;DHT22;4953;48.952;9.442;2023-01-08T11:44:47;9.10;99.90
9828;DHT22;4953;48.952;9.442;2023-01-08T11:47:22;9.10;99.90
9828;DHT22;4953;48.952;9.442;2023-01-08T11:50:02;9.20;99.90
9828;DHT22;4953;48.952;9.442;2023-01-08T11:52:42;9.20;99.90
9828;DHT22;4953;48.952;9.442;2023-01-08T11:55:29;9.20;99.90
9828;DHT22;4953;48.952;9.442;2023-01-08T11:58:09;9.30;99.90
9828;DHT22;4953;48.952;9.442;2023-01-08T12:00:52;9.30;99.90
9828;DHT22;4953;48.952;9.442;2023-01-08T12:03:28;9.30;99.90
9828;DHT22;4953;48.952;9.442;2023-01-08T12:06:11;9.40;99.90
9828;DHT22;4953;48.952;9.442;2023-01-08T12:08:47;9.40;99.90
9828;DHT22;4953;48.952;9.442;2023-01-08T12:11:24;9.50;99.90
9828;DHT22;4953;48.952;9.442;2023-01-08T12:14:05;9.50;99.90
9828;DHT22;4953;48.952;9.442;2023-01-08T12:16:54;9.60;99.90
9828;DHT22;4953;48.952;9.442;2023-01-08T12:19:31;9.60;99.90
9828;DHT22;4953;48.952;9.442;2023-01-08T12:22:10;9.70;99.90
9828;DHT22;4953;48.952;9.442;2023-01-08T12:24:53;9.70;99.90
9828;DHT22;4953;48.952;9.442;2023-01-08T12:27:30;9.70;99.90
9828;DHT22;4953;48.952;9.442;2023-01-08T12:30:12;9.70;99.90
9828;DHT22;4953;48.952;9.442;2023-01-08T12:32:42;9.70;99.90
9828;DHT22;4953;48.952;9.442;2023-01-08T12:35:16;9.60;99.90
9828;DHT22;4953;48.952;9.442;2023-01-08T12:37:49;9.70;99.90
9828;DHT22;4953;48.952;9.442;2023-01-08T12:40:21;9.60;99.90
9828;DHT22;4953;48.952;9.442;2023-01-08T12:42:50;9.60;99.90
9828;DHT22;4953;48.952;9.442;2023-01-08T12:45:25;9.60;99.90
9828;DHT22;4953;48.952;9.442;2023-01-08T12:47:55;9.60;99.90
9828;DHT22;4953;48.952;9.442;2023-01-08T12:53:23;9.60;99.90
9828;DHT22;4953;48.952;9.442;2023-01-08T12:55:58;9.60;99.90
9828;DHT22;4953;48.952;9.442;2023-01-08T12:58:36;9.60;99.90
9828;DHT22;4953;48.952;9.442;2023-01-08T13:01:20;9.60;99.90
9828;DHT22;4953;48.952;9.442;2023-01-08T13:03:50;9.60;99.90
9828;DHT22;4953;48.952;9.442;2023-01-08T13:06:18;9.60;99.90
9828;DHT22;4953;48.952;9.442;2023-01-08T13:08:48;9.60;99.90
9828;DHT22;4953;48.952;9.442;2023-01-08T13:11:24;9.70;99.90
9828;DHT22;4953;48.952;9.442;2023-01-08T13:13:58;9.70;99.90
9828;DHT22;4953;48.952;9.442;2023-01-08T13:16:27;9.70;99.90
9828;DHT22;4953;48.952;9.442;2023-01-08T13:18:57;9.70;99.90
9828;DHT22;4953;48.952;9.442;2023-01-08T13:21:33;9.70;99.90
9828;DHT22;4953;48.952;9.442;2023-01-08T13:24:04;9.80;99.90
9828;DHT22;4953;48.952;9.442;2023-01-08T13:26:33;9.80;99.90
9828;DHT22;4953;48.952;9.442;2023-01-08T13:29:21;9.90;99.90
9828;DHT22;4953;48.952;9.442;2023-01-08T13:31:49;9.90;99.90
9828;DHT22;4953;48.952;9.442;2023-01-08T13:34:22;9.90;99.90
9828;DHT22;4953;48.952;9.442;2023-01-08T13:36:59;9.90;99.90
9828;DHT22;4953;48.952;9.442;2023-01-08T13:39:32;9.90;99.90
9828;DHT22;4953;48.952;9.442;2023-01-08T13:42:03;9.90;99.90
9828;DHT22;4953;48.952;9.442;2023-01-08T13:44:32;10.00;99.90
9828;DHT22;4953;48.952;9.442;2023-01-08T13:47:02;9.90;99.90
9828;DHT22;4953;48.952;9.442;2023-01-08T13:49:35;10.00;99.90
9828;DHT22;4953;48.952;9.442;2023-01-08T13:52:04;10.00;99.90
9828;DHT22;4953;48.952;9.442;2023-01-08T13:54:33;10.00;99.90
9828;DHT22;4953;48.952;9.442;2023-01-08T13:57:05;10.00;99.90
9828;DHT22;4953;48.952;9.442;2023-01-08T13:59:38;10.00;99.90
9828;DHT22;4953;48.952;9.442;2023-01-08T14:02:24;9.90;99.90
9828;DHT22;4953;48.952;9.442;2023-01-08T14:04:52;10.00;99.90
9828;DHT22;4953;48.952;9.442;2023-01-08T14:07:20;10.00;99.90
9828;DHT22;4953;48.952;9.442;2023-01-08T14:09:48;10.00;99.90
9828;DHT22;4953;48.952;9.442;2023-01-08T14:12:16;10.00;99.90
9828;DHT22;4953;48.952;9.442;2023-01-08T14:14:48;10.00;99.90
9828;DHT22;4953;48.952;9.442;2023-01-08T14:17:17;10.00;99.90
9828;DHT22;4953;48.952;9.442;2023-01-08T14:19:46;10.10;99.90
9828;DHT22;4953;48.952;9.442;2023-01-08T14:22:17;10.10;99.90
9828;DHT22;4953;48.952;9.442;2023-01-08T14:24:52;10.10;99.90
9828;DHT22;4953;48.952;9.442;2023-01-08T14:27:22;10.10;99.90
9828;DHT22;4953;48.952;9.442;2023-01-08T14:29:49;10.10;99.90
9828;DHT22;4953;48.952;9.442;2023-01-08T14:32:17;10.10;99.90
9828;DHT22;4953;48.952;9.442;2023-01-08T14:34:47;10.10;99.90
9828;DHT22;4953;48.952;9.442;2023-01-08T14:37:15;10.20;99.90
9828;DHT22;4953;48.952;9.442;2023-01-08T14:39:43;10.20;99.90
9828;DHT22;4953;48.952;9.442;2023-01-08T14:42:15;10.30;99.90
9828;DHT22;4953;48.952;9.442;2023-01-08T14:45:03;10.30;99.90
9828;DHT22;4953;48.952;9.442;2023-01-08T14:47:34;10.30;99.90
9828;DHT22;4953;48.952;9.442;2023-01-08T14:50:05;10.30;99.90
9828;DHT22;4953;48.952;9.442;2023-01-08T14:52:33;10.30;99.90
9828;DHT22;4953;48.952;9.442;2023-01-08T14:55:01;10.20;99.90
9828;DHT22;4953;48.952;9.442;2023-01-08T14:57:29;10.20;99.90
9828;DHT22;4953;48.952;9.442;2023-01-08T14:59:58;10.20;99.90
9828;DHT22;4953;48.952;9.442;2023-01-08T15:02:27;10.20;99.90
9828;DHT22;4953;48.952;9.442;2023-01-08T15:05:12;10.20;99.90
9828;DHT22;4953;48.952;9.442;2023-01-08T15:07:41;10.20;99.90
9828;DHT22;4953;48.952;9.442;2023-01-08T15:10:31;10.20;99.90
9828;DHT22;4953;48.952;9.442;2023-01-08T15:12:58;10.20;99.90
9828;DHT22;4953;48.952;9.442;2023-01-08T15:15:29;10.20;99.90
9828;DHT22;4953;48.952;9.442;2023-01-08T15:17:57;10.10;99.90
9828;DHT22;4953;48.952;9.442;2023-01-08T15:20:28;10.10;99.90
9828;DHT22;4953;48.952;9.442;2023-01-08T15:22:56;10.10;99.90
9828;DHT22;4953;48.952;9.442;2023-01-08T15:25:25;10.10;99.90
9828;DHT22;4953;48.952;9.442;2023-01-08T15:27:56;10.10;99.90
9828;DHT22;4953;48.952;9.442;2023-01-08T15:30:27;10.10;99.90
9828;DHT22;4953;48.952;9.442;2023-01-08T15:33:05;10.00;99.90
9828;DHT22;4953;48.952;9.442;2023-01-08T15:35:34;10.00;99.90
9828;DHT22;4953;48.952;9.442;2023-01-08T15:38:01;10.00;99.90
9828;DHT22;4953;48.952;9.442;2023-01-08T15:40:28;10.00;99.90
9828;DHT22;4953;48.952;9.442;2023-01-08T15:42:55;10.10;99.90
9828;DHT22;4953;48.952;9.442;2023-01-08T15:45:38;10.10;99.90
9828;DHT22;4953;48.952;9.442;2023-01-08T15:48:06;10.30;99.90
9828;DHT22;4953;48.952;9.442;2023-01-08T15:50:36;10.40;99.90
9828;DHT22;4953;48.952;9.442;2023-01-08T15:53:05;10.30;99.90
9828;DHT22;4953;48.952;9.442;2023-01-08T15:55:33;10.30;99.90
9828;DHT22;4953;48.952;9.442;2023-01-08T15:58:01;10.30;99.90
9828;DHT22;4953;48.952;9.442;2023-01-08T16:00:29;10.30;99.90
9828;DHT22;4953;48.952;9.442;2023-01-08T16:02:57;10.30;99.90
9828;DHT22;4953;48.952;9.442;2023-01-08T16:05:27;10.20;99.90
9828;DHT22;4953;48.952;9.442;2023-01-08T16:07:56;10.20;99.90
9828;DHT22;4953;48.952;9.442;2023-01-08T16:10:22;10.30;99.90
9828;DHT22;4953;48.952;9.442;2023-01-08T16:12:50;10.30;99.90
9828;DHT22;4953;48.952;9.442;2023-01-08T16:15:17;10.30;99.90
9828;DHT22;4953;48.952;9.442;2023-01-08T16:17:44;10.30;99.90
9828;DHT22;4953;48.952;9.442;2023-01-08T16:20:12;10.30;99.90
9828;DHT22;4953;48.952;9.442;2023-01-08T16:22:39;10.30;99.90
9828;DHT22;4953;48.952;9.442;2023-01-08T16:25:08;10.30;99.90
9828;DHT22;4953;48.952;9.442;2023-01-08T16:27:35;10.30;99.90
9828;DHT22;4953;48.952;9.442;2023-01-08T16:30:04;10.30;99.90
9828;DHT22;4953;48.952;9.442;2023-01-08T16:32:31;10.30;99.90
9828;DHT22;4953;48.952;9.442;2023-01-08T16:34:58;10.20;99.90
9828;DHT22;4953;48.952;9.442;2023-01-08T16:37:24;10.20;99.90
9828;DHT22;4953;48.952;9.442;2023-01-08T16:39:51;10.20;99.90
9828;DHT22;4953;48.952;9.442;2023-01-08T16:42:19;10.20;99.90
9828;DHT22;4953;48.952;9.442;2023-01-08T16:44:55;10.20;99.90
9828;DHT22;4953;48.952;9.442;2023-01-08T16:47:22;10.20;99.90
9828;DHT22;4953;48.952;9.442;2023-01-08T16:49:49;10.20;99.90
9828;DHT22;4953;48.952;9.442;2023-01-08T16:52:16;10.10;99.90
9828;DHT22;4953;48.952;9.442;2023-01-08T16:54:43;10.20;99.90
9828;DHT22;4953;48.952;9.442;2023-01-08T16:57:10;10.20;99.90
9828;DHT22;4953;48.952;9.442;2023-01-08T16:59:38;10.10;99.90
9828;DHT22;4953;48.952;9.442;2023-01-08T17:02:05;10.20;99.90
9828;DHT22;4953;48.952;9.442;2023-01-08T17:04:32;10.10;99.90
9828;DHT22;4953;48.952;9.442;2023-01-08T17:06:59;10.10;99.90
9828;DHT22;4953;48.952;9.442;2023-01-08T17:09:26;10.10;99.90
9828;DHT22;4953;48.952;9.442;2023-01-08T17:11:52;10.10;99.90
9828;DHT22;4953;48.952;9.442;2023-01-08T17:14:19;10.10;99.90
9828;DHT22;4953;48.952;9.442;2023-01-08T17:16:47;10.10;99.90
9828;DHT22;4953;48.952;9.442;2023-01-08T17:19:15;10.10;99.90
9828;DHT22;4953;48.952;9.442;2023-01-08T17:21:42;10.10;99.90
9828;DHT22;4953;48.952;9.442;2023-01-08T17:24:10;10.10;99.90
9828;DHT22;4953;48.952;9.442;2023-01-08T17:26:37;10.10;99.90
9828;DHT22;4953;48.952;9.442;2023-01-08T17:29:04;10.00;99.90
9828;DHT22;4953;48.952;9.442;2023-01-08T17:31:31;10.00;99.90
9828;DHT22;4953;48.952;9.442;2023-01-08T17:34:06;10.00;99.90
9828;DHT22;4953;48.952;9.442;2023-01-08T17:36:33;10.00;99.90
9828;DHT22;4953;48.952;9.442;2023-01-08T17:39:00;10.00;99.90
9828;DHT22;4953;48.952;9.442;2023-01-08T17:41:27;10.00;99.90
9828;DHT22;4953;48.952;9.442;2023-01-08T17:44:12;10.00;99.90
9828;DHT22;4953;48.952;9.442;2023-01-08T17:46:40;10.00;99.90
9828;DHT22;4953;48.952;9.442;2023-01-08T17:49:11;10.00;99.90
9828;DHT22;4953;48.952;9.442;2023-01-08T17:51:39;10.00;99.90
9828;DHT22;4953;48.952;9.442;2023-01-08T17:54:08;10.00;99.90
9828;DHT22;4953;48.952;9.442;2023-01-08T17:56:35;10.00;99.90
9828;DHT22;4953;48.952;9.442;2023-01-08T17:59:03;9.90;99.90
9828;DHT22;4953;48.952;9.442;2023-01-08T18:01:30;10.00;99.90
9828;DHT22;4953;48.952;9.442;2023-01-08T18:03:58;9.90;99.90
9828;DHT22;4953;48.952;9.442;2023-01-08T18:06:26;9.90;99.90
9828;DHT22;4953;48.952;9.442;2023-01-08T18:08:53;9.90;99.90
9828;DHT22;4953;48.952;9.442;2023-01-08T18:11:20;9.90;99.90
9828;DHT22;4953;48.952;9.442;2023-01-08T18:13:46;9.90;99.90
9828;DHT22;4953;48.952;9.442;2023-01-08T18:16:13;9.90;99.90
9828;DHT22;4953;48.952;9.442;2023-01-08T18:18:40;9.90;99.90
9828;DHT22;4953;48.952;9.442;2023-01-08T18:21:07;9.90;99.90
9828;DHT22;4953;48.952;9.442;2023-01-08T18:23:35;9.80;99.90
9828;DHT22;4953;48.952;9.442;2023-01-08T18:26:03;9.80;99.90
9828;DHT22;4953;48.952;9.442;2023-01-08T18:28:31;9.80;99.90
9828;DHT22;4953;48.952;9.442;2023-01-08T18:30:57;9.80;99.90
9828;DHT22;4953;48.952;9.442;2023-01-08T18:33:25;9.80;99.90
9828;DHT22;4953;48.952;9.442;2023-01-08T18:35:52;9.80;99.90
9828;DHT22;4953;48.952;9.442;2023-01-08T18:38:19;9.80;99.90
9828;DHT22;4953;48.952;9.442;2023-01-08T18:40:47;9.80;99.90
9828;DHT22;4953;48.952;9.442;2023-01-08T18:43:14;9.80;99.90
9828;DHT22;4953;48.952;9.442;2023-01-08T18:45:41;9.70;99.90
9828;DHT22;4953;48.952;9.442;2023-01-08T18:48:08;9.60;99.90
9828;DHT22;4953;48.952;9.442;2023-01-08T18:50:37;9.60;99.90
9828;DHT22;4953;48.952;9.442;2023-01-08T18:53:05;9.50;99.90
9828;DHT22;4953;48.952;9.442;2023-01-08T18:55:31;9.60;99.90
9828;DHT22;4953;48.952;9.442;2023-01-08T18:58:00;9.50;99.90
9828;DHT22;4953;48.952;9.442;2023-01-08T19:00:27;9.50;99.90
9828;DHT22;4953;48.952;9.442;2023-01-08T19:02:54;9.50;99.90
9828;DHT22;4953;48.952;9.442;2023-01-08T19:05:21;9.50;99.90
9828;DHT22;4953;48.952;9.442;2023-01-08T19:07:48;9.50;99.90
9828;DHT22;4953;48.952;9.442;2023-01-08T19:10:16;9.50;99.90
9828;DHT22;4953;48.952;9.442;2023-01-08T19:12:43;9.40;99.90
9828;DHT22;4953;48.952;9.442;2023-01-08T19:15:11;9.50;99.90
9828;DHT22;4953;48.952;9.442;2023-01-08T19:17:38;9.50;99.90
9828;DHT22;4953;48.952;9.442;2023-01-08T19:20:06;9.40;99.90
9828;DHT22;4953;48.952;9.442;2023-01-08T19:22:33;9.50;99.90
9828;DHT22;4953;48.952;9.442;2023-01-08T19:24:59;9.50;99.90
9828;DHT22;4953;48.952;9.442;2023-01-08T19:27:26;9.50;99.90
9828;DHT22;4953;48.952;9.442;2023-01-08T19:29:53;9.50;99.90
9828;DHT22;4953;48.952;9.442;2023-01-08T19:32:21;9.50;99.90
9828;DHT22;4953;48.952;9.442;2023-01-08T19:34:48;9.50;99.90
9828;DHT22;4953;48.952;9.442;2023-01-08T19:37:15;9.50;99.90
9828;DHT22;4953;48.952;9.442;2023-01-08T19:39:42;9.50;99.90
9828;DHT22;4953;48.952;9.442;2023-01-08T19:42:10;9.50;99.90
9828;DHT22;4953;48.952;9.442;2023-01-08T19:44:54;9.50;99.90
9828;DHT22;4953;48.952;9.442;2023-01-08T19:47:23;9.40;99.90
9828;DHT22;4953;48.952;9.442;2023-01-08T19:49:50;9.40;99.90
9828;DHT22;4953;48.952;9.442;2023-01-08T19:52:17;9.40;99.90
9828;DHT22;4953;48.952;9.442;2023-01-08T19:54:44;9.40;99.90
9828;DHT22;4953;48.952;9.442;2023-01-08T19:57:11;9.40;99.90
9828;DHT22;4953;48.952;9.442;2023-01-08T19:59:38;9.40;99.90
9828;DHT22;4953;48.952;9.442;2023-01-08T20:02:05;9.40;99.90
9828;DHT22;4953;48.952;9.442;2023-01-08T20:04:35;9.40;99.90
9828;DHT22;4953;48.952;9.442;2023-01-08T20:07:03;9.40;99.90
9828;DHT22;4953;48.952;9.442;2023-01-08T20:09:30;9.40;99.90
9828;DHT22;4953;48.952;9.442;2023-01-08T20:11:59;9.40;99.90
9828;DHT22;4953;48.952;9.442;2023-01-08T20:14:26;9.40;99.90
9828;DHT22;4953;48.952;9.442;2023-01-08T20:16:52;9.50;99.90
9828;DHT22;4953;48.952;9.442;2023-01-08T20:19:19;9.40;99.90
9828;DHT22;4953;48.952;9.442;2023-01-08T20:21:47;9.40;99.90
9828;DHT22;4953;48.952;9.442;2023-01-08T20:24:14;9.40;99.90
9828;DHT22;4953;48.952;9.442;2023-01-08T20:26:43;9.40;99.90
9828;DHT22;4953;48.952;9.442;2023-01-08T20:29:10;9.40;99.90
9828;DHT22;4953;48.952;9.442;2023-01-08T20:31:37;9.40;99.90
9828;DHT22;4953;48.952;9.442;2023-01-08T20:34:06;9.40;99.90
9828;DHT22;4953;48.952;9.442;2023-01-08T20:36:34;9.40;99.90
9828;DHT22;4953;48.952;9.442;2023-01-08T20:39:06;9.40;99.90
9828;DHT22;4953;48.952;9.442;2023-01-08T20:41:33;9.30;99.90
9828;DHT22;4953;48.952;9.442;2023-01-08T20:44:01;9.30;99.90
9828;DHT22;4953;48.952;9.442;2023-01-08T20:46:31;9.30;99.90
9828;DHT22;4953;48.952;9.442;2023-01-08T20:49:00;9.30;99.90
9828;DHT22;4953;48.952;9.442;2023-01-08T20:51:28;9.30;99.90
9828;DHT22;4953;48.952;9.442;2023-01-08T20:53:55;9.30;99.90
9828;DHT22;4953;48.952;9.442;2023-01-08T20:56:23;9.30;99.90
9828;DHT22;4953;48.952;9.442;2023-01-08T20:58:50;9.30;99.90
9828;DHT22;4953;48.952;9.442;2023-01-08T21:01:18;9.30;99.90
9828;DHT22;4953;48.952;9.442;2023-01-08T21:03:46;9.30;99.90
9828;DHT22;4953;48.952;9.442;2023-01-08T21:06:15;9.30;99.90
9828;DHT22;4953;48.952;9.442;2023-01-08T21:08:44;9.30;99.90
9828;DHT22;4953;48.952;9.442;2023-01-08T21:11:11;9.30;99.90
9828;DHT22;4953;48.952;9.442;2023-01-08T21:13:40;9.30;99.90
9828;DHT22;4953;48.952;9.442;2023-01-08T21:16:10;9.30;99.90
9828;DHT22;4953;48.952;9.442;2023-01-08T21:18:38;9.20;99.90
9828;DHT22;4953;48.952;9.442;2023-01-08T21:21:10;9.20;99.90
9828;DHT22;4953;48.952;9.442;2023-01-08T21:23:37;9.20;99.90
9828;DHT22;4953;48.952;9.442;2023-01-08T21:26:06;9.20;99.90
9828;DHT22;4953;48.952;9.442;2023-01-08T21:28:34;9.20;99.90
9828;DHT22;4953;48.952;9.442;2023-01-08T21:31:07;9.20;99.90